createdAt,value
2022-08-28T00:00:15.609Z,100681.84
2022-08-28T00:05:13.156Z,100687.03
2022-08-28T00:10:11.250Z,100675.88
2022-08-28T00:15:09.521Z,100699.03
2022-08-28T00:20:18.050Z,100704.75
2022-08-28T00:25:15.492Z,100700.03
2022-08-28T00:30:12.240Z,100704.53
2022-08-28T00:35:09.113Z,100706.47
2022-08-28T00:40:08.446Z,100696.03
2022-08-28T00:45:05.622Z,100704.78
2022-08-28T00:50:03.175Z,100703.09
2022-08-28T00:55:01.385Z,100692.34
2022-08-28T00:59:58.819Z,100702.97
2022-08-28T01:04:55.659Z,100701.44
2022-08-28T01:09:53.484Z,100699.81
2022-08-28T01:14:51.995Z,100706.56
2022-08-28T01:19:55.839Z,100706.13
2022-08-28T01:24:53.779Z,100713.44
2022-08-28T01:29:50.360Z,100713.19
2022-08-28T01:34:47.080Z,100715.47
2022-08-28T01:39:43.563Z,100713.44
2022-08-28T01:44:40.723Z,100709.22
2022-08-28T01:49:37.375Z,100715.72
2022-08-28T01:54:33.939Z,100711.84
2022-08-28T01:59:32.671Z,100710.72
2022-08-28T02:04:31.932Z,100703.00
2022-08-28T02:09:29.134Z,100700.13
2022-08-28T02:14:25.750Z,100709.81
2022-08-28T02:19:22.351Z,100705.31
2022-08-28T02:24:19.760Z,100701.72
2022-08-28T02:29:16.634Z,100698.97
2022-08-28T02:34:13.282Z,100705.81
2022-08-28T02:39:09.937Z,100706.50
2022-08-28T02:44:07.215Z,100715.78
2022-08-28T02:49:03.839Z,100710.50
2022-08-28T02:54:00.788Z,100713.53
2022-08-28T02:58:57.792Z,100715.72
2022-08-28T03:03:55.099Z,100727.25
2022-08-28T03:08:51.665Z,100733.19
2022-08-28T03:13:48.968Z,100737.75
2022-08-28T03:18:45.554Z,100735.19
2022-08-28T03:23:42.841Z,100746.81
2022-08-28T03:28:41.262Z,100748.78
2022-08-28T03:33:38.038Z,100749.28
2022-08-28T03:38:40.870Z,100757.81
2022-08-28T03:43:38.134Z,100756.78
2022-08-28T03:48:35.765Z,100758.34
2022-08-28T03:53:32.497Z,100757.91
2022-08-28T03:58:29.068Z,100767.22
2022-08-28T04:03:26.548Z,100767.19
2022-08-28T04:08:23.264Z,100767.09
2022-08-28T04:13:20.240Z,100759.22
2022-08-28T04:18:16.856Z,100773.81
2022-08-28T04:23:14.084Z,100766.31
2022-08-28T04:28:10.657Z,100769.06
2022-08-28T04:33:07.378Z,100771.75
2022-08-28T04:38:05.555Z,100779.44
2022-08-28T04:43:03.150Z,100777.34
2022-08-28T04:48:00.231Z,100784.34
2022-08-28T04:52:59.924Z,100785.63
2022-08-28T04:57:56.588Z,100780.91
2022-08-28T05:02:54.452Z,100795.31
2022-08-28T05:07:51.132Z,100797.00
2022-08-28T05:12:47.824Z,100802.06
2022-08-28T05:17:46.537Z,100798.72
2022-08-28T05:22:43.807Z,100796.88
2022-08-28T05:27:40.657Z,100806.34
2022-08-28T05:32:37.300Z,100810.91
2022-08-28T05:37:34.073Z,100818.69
2022-08-28T05:42:33.113Z,100816.03
2022-08-28T05:47:32.562Z,100820.50
2022-08-28T05:52:29.701Z,100819.66
2022-08-28T05:57:26.470Z,100822.38
2022-08-28T06:02:23.802Z,100827.06
2022-08-28T06:07:20.454Z,100826.94
2022-08-28T06:12:17.116Z,100811.31
2022-08-28T06:17:14.794Z,100820.28
2022-08-28T06:22:14.216Z,100831.25
2022-08-28T06:27:10.825Z,100834.34
2022-08-28T06:32:08.469Z,100836.41
2022-08-28T06:37:05.108Z,100841.88
2022-08-28T06:42:02.599Z,100835.41
2022-08-28T06:46:59.755Z,100840.63
2022-08-28T06:51:56.366Z,100844.66
2022-08-28T06:56:53.601Z,100849.31
2022-08-28T07:01:52.400Z,100846.16
2022-08-28T07:06:53.698Z,100842.34
2022-08-28T07:11:51.144Z,100836.22
2022-08-28T07:16:49.039Z,100844.31
2022-08-28T07:21:47.421Z,100835.88
2022-08-28T07:26:44.869Z,100831.56
2022-08-28T07:31:43.362Z,100842.50
2022-08-28T07:36:40.862Z,100839.69
2022-08-28T07:41:39.727Z,100841.44
2022-08-28T07:46:37.033Z,100828.81
2022-08-28T07:51:33.668Z,100835.72
2022-08-28T07:56:30.541Z,100834.19
2022-08-28T08:01:29.141Z,100837.53
2022-08-28T08:06:28.065Z,100831.13
2022-08-28T08:11:32.447Z,100823.97
2022-08-28T08:16:30.243Z,100827.25
2022-08-28T08:21:30.286Z,100825.31
2022-08-28T08:26:28.341Z,100823.31
2022-08-28T08:31:26.113Z,100828.53
2022-08-28T08:36:24.276Z,100829.56
2022-08-28T08:41:22.995Z,100825.84
2022-08-28T08:46:20.122Z,100820.94
2022-08-28T08:51:19.978Z,100823.69
2022-08-28T08:56:21.112Z,100813.34
2022-08-28T09:01:21.189Z,100811.06
2022-08-28T09:06:21.265Z,100817.34
2022-08-28T09:11:23.590Z,100809.66
2022-08-28T09:16:26.933Z,100812.94
2022-08-28T09:21:28.995Z,100803.78
2022-08-28T09:26:26.907Z,100809.66
2022-08-28T09:31:31.429Z,100807.59
2022-08-28T09:36:29.556Z,100785.22
2022-08-28T09:41:45.498Z,100809.69
2022-08-28T09:46:47.403Z,100803.13
2022-08-28T09:51:44.047Z,100801.38
2022-08-28T09:56:42.112Z,100798.72
2022-08-28T10:01:44.779Z,100793.75
2022-08-28T10:06:44.100Z,100787.97
2022-08-28T10:11:48.155Z,100780.06
2022-08-28T10:16:51.460Z,100782.16
2022-08-28T10:21:55.309Z,100772.88
2022-08-28T10:26:55.569Z,100770.00
2022-08-28T10:31:59.245Z,100763.69
2022-08-28T10:37:02.119Z,100761.69
2022-08-28T10:42:02.428Z,100759.09
2022-08-28T10:46:59.424Z,100757.91
2022-08-28T10:52:00.786Z,100755.59
2022-08-28T10:57:03.366Z,100754.56
2022-08-28T11:02:00.925Z,100747.47
2022-08-28T11:07:01.175Z,100750.53
2022-08-28T11:12:01.759Z,100744.28
2022-08-28T11:17:01.573Z,100740.97
2022-08-28T11:22:02.115Z,100749.41
2022-08-28T11:27:05.976Z,100741.88
2022-08-28T11:32:17.437Z,100740.38
2022-08-28T11:37:34.713Z,100735.56
2022-08-28T11:42:36.757Z,100727.41
2022-08-28T11:47:45.166Z,100722.59
2022-08-28T11:52:53.940Z,100724.88
2022-08-28T12:03:08.235Z,100714.63
2022-08-28T12:08:05.590Z,100710.22
2022-08-28T12:13:02.758Z,100715.44
2022-08-28T12:18:00.596Z,100711.88
2022-08-28T12:22:58.740Z,100710.84
2022-08-28T12:27:56.813Z,100703.50
2022-08-28T12:32:56.282Z,100706.03
2022-08-28T12:38:00.675Z,100705.59
2022-08-28T12:42:59.630Z,100706.84
2022-08-28T12:47:57.876Z,100699.09
2022-08-28T12:52:56.585Z,100695.50
2022-08-28T12:57:53.546Z,100698.00
2022-08-28T13:02:51.554Z,100696.13
2022-08-28T13:07:49.620Z,100689.88
2022-08-28T13:12:55.985Z,100689.03
2022-08-28T13:17:54.659Z,100690.09
2022-08-28T13:22:51.429Z,100685.69
2022-08-28T13:27:54.993Z,100680.03
2022-08-28T13:32:56.296Z,100663.28
2022-08-28T13:37:53.647Z,100664.50
2022-08-28T13:42:51.328Z,100671.84
2022-08-28T13:47:47.951Z,100673.75
2022-08-28T13:52:45.320Z,100659.94
2022-08-28T13:57:43.410Z,100666.59
2022-08-28T14:02:58.598Z,100661.78
2022-08-28T14:07:55.895Z,100662.03
2022-08-28T14:12:52.635Z,100666.59
2022-08-28T14:17:49.494Z,100661.38
2022-08-28T14:22:46.093Z,100664.94
2022-08-28T14:27:43.359Z,100663.47
2022-08-28T14:32:39.991Z,100661.34
2022-08-28T14:37:36.556Z,100665.75
2022-08-28T14:42:33.167Z,100661.38
2022-08-28T14:47:30.660Z,100659.69
2022-08-28T14:52:27.319Z,100662.41
2022-08-28T14:57:23.953Z,100665.59
2022-08-28T15:02:20.656Z,100657.00
2022-08-28T15:07:20.616Z,100666.59
2022-08-28T15:12:17.546Z,100660.75
2022-08-28T15:17:14.172Z,100667.88
2022-08-28T15:22:10.823Z,100657.81
2022-08-28T15:27:08.093Z,100653.81
2022-08-28T15:32:08.341Z,100658.63
2022-08-28T15:37:07.802Z,100655.94
2022-08-28T15:42:06.052Z,100644.22
2022-08-28T15:47:04.303Z,100641.28
2022-08-28T15:52:00.909Z,100636.31
2022-08-28T15:56:57.553Z,100638.06
2022-08-28T16:01:54.366Z,100628.47
2022-08-28T16:06:56.656Z,100627.25
2022-08-28T16:11:57.400Z,100633.72
2022-08-28T16:16:53.917Z,100622.44
2022-08-28T16:21:51.330Z,100624.31
2022-08-28T16:26:48.026Z,100632.06
2022-08-28T16:31:45.184Z,100633.94
2022-08-28T16:36:41.780Z,100638.97
2022-08-28T16:41:39.049Z,100641.28
2022-08-28T16:46:35.759Z,100645.44
2022-08-28T16:51:32.480Z,100645.00
2022-08-28T16:56:29.095Z,100647.97
2022-08-28T17:01:27.978Z,100655.69
2022-08-28T17:06:25.511Z,100669.53
2022-08-28T17:11:22.078Z,100667.84
2022-08-28T17:16:19.903Z,100674.75
2022-08-28T17:21:36.349Z,100684.81
2022-08-28T17:26:32.959Z,100689.19
2022-08-28T17:31:29.721Z,100705.81
2022-08-28T17:36:33.791Z,100688.78
2022-08-28T17:41:31.414Z,100712.63
2022-08-28T17:46:28.064Z,100718.03
2022-08-28T17:51:33.178Z,100723.69
2022-08-28T17:56:41.837Z,100724.78
2022-08-28T18:01:38.654Z,100733.56
2022-08-28T18:06:35.362Z,100735.72
2022-08-28T18:11:32.050Z,100727.75
2022-08-28T18:16:31.785Z,100736.97
2022-08-28T18:21:28.937Z,100743.63
2022-08-28T18:26:25.689Z,100736.75
2022-08-28T18:31:22.683Z,100742.59
2022-08-28T18:36:22.415Z,100749.06
2022-08-28T18:41:19.861Z,100748.22
2022-08-28T18:46:16.676Z,100751.59
2022-08-28T18:51:13.628Z,100749.34
2022-08-28T18:56:12.152Z,100752.44
2022-08-28T19:01:09.145Z,100754.44
2022-08-28T19:06:06.021Z,100751.53
2022-08-28T19:11:06.966Z,100757.75
2022-08-28T19:16:04.701Z,100762.28
2022-08-28T19:21:05.089Z,100769.91
2022-08-28T19:26:02.051Z,100763.00
2022-08-28T19:30:58.747Z,100772.47
2022-08-28T19:35:56.128Z,100780.75
2022-08-28T19:40:52.839Z,100778.34
2022-08-28T19:45:49.482Z,100786.66
2022-08-28T19:50:46.056Z,100785.34
2022-08-28T19:55:43.316Z,100787.81
2022-08-28T20:00:39.855Z,100786.78
2022-08-28T20:05:38.291Z,100792.44
2022-08-28T20:10:37.322Z,100791.00
2022-08-28T20:15:34.779Z,100801.34
2022-08-28T20:20:31.455Z,100797.91
2022-08-28T20:25:28.120Z,100802.22
2022-08-28T20:30:24.735Z,100796.78
2022-08-28T20:35:22.246Z,100802.91
2022-08-28T20:40:21.469Z,100800.72
2022-08-28T20:45:18.810Z,100811.94
2022-08-28T20:50:15.487Z,100819.69
2022-08-28T20:55:13.569Z,100824.00
2022-08-28T21:00:10.916Z,100822.13
2022-08-28T21:05:08.016Z,100822.53
2022-08-28T21:10:07.903Z,100826.06
2022-08-28T21:15:06.236Z,100823.34
2022-08-28T21:20:05.808Z,100822.88
2022-08-28T21:25:03.567Z,100820.34
2022-08-28T21:30:00.454Z,100816.44
2022-08-28T21:34:58.401Z,100807.47
2022-08-28T21:39:56.429Z,100826.97
2022-08-28T21:44:53.900Z,100839.88
2022-08-28T21:49:50.978Z,100839.16
2022-08-28T21:54:50.222Z,100829.22
2022-08-28T21:59:46.785Z,100838.66
2022-08-28T22:04:43.319Z,100853.16
2022-08-28T22:09:40.255Z,100851.94
2022-08-28T22:14:37.751Z,100847.56
2022-08-28T22:19:34.305Z,100849.34
2022-08-28T22:24:30.867Z,100846.88
2022-08-28T22:29:30.192Z,100853.63
2022-08-28T22:34:27.474Z,100852.94
2022-08-28T22:39:24.003Z,100840.88
2022-08-28T22:44:20.540Z,100845.09
2022-08-28T22:49:17.100Z,100851.25
2022-08-28T22:54:14.348Z,100847.03
2022-08-28T22:59:11.314Z,100854.13
2022-08-28T23:04:08.046Z,100848.41
2022-08-28T23:09:04.760Z,100837.22
2022-08-28T23:14:02.229Z,100840.44
2022-08-28T23:19:13.892Z,100850.72
2022-08-28T23:24:11.550Z,100853.97
2022-08-28T23:29:09.108Z,100847.16
2022-08-28T23:34:05.749Z,100860.22
2022-08-28T23:39:02.906Z,100863.75
2022-08-28T23:43:59.822Z,100867.59
2022-08-28T23:48:57.129Z,100861.72
2022-08-28T23:53:53.837Z,100861.19
2022-08-28T23:58:53.227Z,100855.44
